sensor_id;sensor_type;location;lat;lon;timestamp;temperature;humidity
60868;DHT22;46702;48.370;10.794;2022-09-09T00:04:37;12.20;99.90
60868;DHT22;46702;48.370;10.794;2022-09-09T00:13:23;12.50;99.90
60868;DHT22;46702;48.370;10.794;2022-09-09T00:16:10;12.40;99.90
60868;DHT22;46702;48.370;10.794;2022-09-09T00:19:07;12.20;99.90
60868;DHT22;46702;48.370;10.794;2022-09-09T00:21:46;12.00;99.90
60868;DHT22;46702;48.370;10.794;2022-09-09T00:24:45;12.00;99.90
60868;DHT22;46702;48.370;10.794;2022-09-09T00:27:31;12.00;99.90
60868;DHT22;46702;48.370;10.794;2022-09-09T00:30:24;12.10;99.90
60868;DHT22;46702;48.370;10.794;2022-09-09T00:33:15;11.60;99.90
60868;DHT22;46702;48.370;10.794;2022-09-09T00:36:00;11.40;99.90
60868;DHT22;46702;48.370;10.794;2022-09-09T00:38:35;11.60;99.90
60868;DHT22;46702;48.370;10.794;2022-09-09T00:41:14;11.80;99.90
60868;DHT22;46702;48.370;10.794;2022-09-09T00:43:41;11.90;99.90
60868;DHT22;46702;48.370;10.794;2022-09-09T00:52:00;12.00;99.90
60868;DHT22;46702;48.370;10.794;2022-09-09T01:00:17;11.90;99.90
60868;DHT22;46702;48.370;10.794;2022-09-09T01:08:56;12.10;99.90
60868;DHT22;46702;48.370;10.794;2022-09-09T01:14:39;12.30;99.90
60868;DHT22;46702;48.370;10.794;2022-09-09T01:22:22;12.20;99.90
60868;DHT22;46702;48.370;10.794;2022-09-09T01:25:18;12.20;99.90
60868;DHT22;46702;48.370;10.794;2022-09-09T01:27:48;12.30;99.90
60868;DHT22;46702;48.370;10.794;2022-09-09T01:30:16;12.40;99.90
60868;DHT22;46702;48.370;10.794;2022-09-09T01:32:48;12.30;99.90
60868;DHT22;46702;48.370;10.794;2022-09-09T01:35:45;12.30;99.90
60868;DHT22;46702;48.370;10.794;2022-09-09T01:38:12;12.20;99.90
60868;DHT22;46702;48.370;10.794;2022-09-09T01:40:39;11.90;99.90
60868;DHT22;46702;48.370;10.794;2022-09-09T01:43:05;11.60;99.90
60868;DHT22;46702;48.370;10.794;2022-09-09T01:45:32;11.40;99.90
60868;DHT22;46702;48.370;10.794;2022-09-09T01:47:58;11.30;99.90
60868;DHT22;46702;48.370;10.794;2022-09-09T01:50:24;11.30;99.90
60868;DHT22;46702;48.370;10.794;2022-09-09T01:52:53;11.20;99.90
60868;DHT22;46702;48.370;10.794;2022-09-09T01:55:29;11.20;99.90
60868;DHT22;46702;48.370;10.794;2022-09-09T01:58:25;11.10;99.90
60868;DHT22;46702;48.370;10.794;2022-09-09T02:01:00;11.00;99.90
60868;DHT22;46702;48.370;10.794;2022-09-09T02:03:28;11.10;99.90
60868;DHT22;46702;48.370;10.794;2022-09-09T02:06:25;11.20;99.90
60868;DHT22;46702;48.370;10.794;2022-09-09T02:08:55;11.40;99.90
60868;DHT22;46702;48.370;10.794;2022-09-09T02:11:26;11.60;99.90
60868;DHT22;46702;48.370;10.794;2022-09-09T02:14:07;11.70;99.90
60868;DHT22;46702;48.370;10.794;2022-09-09T02:16:39;11.80;99.90
60868;DHT22;46702;48.370;10.794;2022-09-09T02:19:16;11.90;99.90
60868;DHT22;46702;48.370;10.794;2022-09-09T02:21:46;11.70;99.90
60868;DHT22;46702;48.370;10.794;2022-09-09T02:24:14;11.80;99.90
60868;DHT22;46702;48.370;10.794;2022-09-09T02:26:42;11.80;99.90
60868;DHT22;46702;48.370;10.794;2022-09-09T02:29:20;11.80;99.90
60868;DHT22;46702;48.370;10.794;2022-09-09T02:31:49;11.90;99.90
60868;DHT22;46702;48.370;10.794;2022-09-09T02:34:17;11.90;99.90
60868;DHT22;46702;48.370;10.794;2022-09-09T02:36:46;12.00;99.90
60868;DHT22;46702;48.370;10.794;2022-09-09T02:39:12;12.00;99.90
60868;DHT22;46702;48.370;10.794;2022-09-09T02:41:42;12.00;99.90
60868;DHT22;46702;48.370;10.794;2022-09-09T02:44:12;12.00;99.90
60868;DHT22;46702;48.370;10.794;2022-09-09T02:46:48;12.00;99.90
60868;DHT22;46702;48.370;10.794;2022-09-09T02:52:15;11.60;99.90
60868;DHT22;46702;48.370;10.794;2022-09-09T02:54:43;11.50;99.90
60868;DHT22;46702;48.370;10.794;2022-09-09T02:57:17;11.30;99.90
60868;DHT22;46702;48.370;10.794;2022-09-09T02:59:45;11.30;99.90
60868;DHT22;46702;48.370;10.794;2022-09-09T03:02:12;11.30;99.90
60868;DHT22;46702;48.370;10.794;2022-09-09T03:04:38;11.20;99.90
60868;DHT22;46702;48.370;10.794;2022-09-09T03:07:04;11.30;99.90
60868;DHT22;46702;48.370;10.794;2022-09-09T03:09:31;11.40;99.90
60868;DHT22;46702;48.370;10.794;2022-09-09T03:11:58;11.30;99.90
60868;DHT22;46702;48.370;10.794;2022-09-09T03:14:24;11.20;99.90
60868;DHT22;46702;48.370;10.794;2022-09-09T03:16:54;11.00;99.90
60868;DHT22;46702;48.370;10.794;2022-09-09T03:19:20;10.90;99.90
60868;DHT22;46702;48.370;10.794;2022-09-09T03:21:47;10.90;99.90
60868;DHT22;46702;48.370;10.794;2022-09-09T03:24:13;11.00;99.90
60868;DHT22;46702;48.370;10.794;2022-09-09T03:26:40;11.10;99.90
60868;DHT22;46702;48.370;10.794;2022-09-09T03:29:06;11.10;99.90
60868;DHT22;46702;48.370;10.794;2022-09-09T03:31:33;11.00;99.90
60868;DHT22;46702;48.370;10.794;2022-09-09T03:33:59;11.00;99.90
60868;DHT22;46702;48.370;10.794;2022-09-09T03:36:26;10.90;99.90
60868;DHT22;46702;48.370;10.794;2022-09-09T03:38:52;10.90;99.90
60868;DHT22;46702;48.370;10.794;2022-09-09T03:41:19;10.90;99.90
60868;DHT22;46702;48.370;10.794;2022-09-09T03:43:45;11.10;99.90
60868;DHT22;46702;48.370;10.794;2022-09-09T03:46:11;11.20;99.90
60868;DHT22;46702;48.370;10.794;2022-09-09T03:48:36;11.00;99.90
60868;DHT22;46702;48.370;10.794;2022-09-09T03:51:02;11.00;99.90
60868;DHT22;46702;48.370;10.794;2022-09-09T03:53:29;11.00;99.90
60868;DHT22;46702;48.370;10.794;2022-09-09T03:55:55;11.00;99.90
60868;DHT22;46702;48.370;10.794;2022-09-09T03:58:22;11.10;99.90
60868;DHT22;46702;48.370;10.794;2022-09-09T04:01:01;11.20;99.90
60868;DHT22;46702;48.370;10.794;2022-09-09T04:03:27;11.10;99.90
60868;DHT22;46702;48.370;10.794;2022-09-09T04:05:54;11.10;99.90
60868;DHT22;46702;48.370;10.794;2022-09-09T04:08:21;11.10;99.90
60868;DHT22;46702;48.370;10.794;2022-09-09T04:10:48;11.20;99.90
60868;DHT22;46702;48.370;10.794;2022-09-09T04:13:14;11.20;99.90
60868;DHT22;46702;48.370;10.794;2022-09-09T04:15:42;11.30;99.90
60868;DHT22;46702;48.370;10.794;2022-09-09T04:18:09;11.40;99.90
60868;DHT22;46702;48.370;10.794;2022-09-09T04:20:35;11.40;99.90
60868;DHT22;46702;48.370;10.794;2022-09-09T04:23:01;11.40;99.90
60868;DHT22;46702;48.370;10.794;2022-09-09T04:25:27;11.40;99.90
60868;DHT22;46702;48.370;10.794;2022-09-09T04:27:56;11.50;99.90
60868;DHT22;46702;48.370;10.794;2022-09-09T04:30:23;11.40;99.90
60868;DHT22;46702;48.370;10.794;2022-09-09T04:32:48;11.40;99.90
60868;DHT22;46702;48.370;10.794;2022-09-09T04:35:14;11.20;99.90
60868;DHT22;46702;48.370;10.794;2022-09-09T04:37:40;11.20;99.90
60868;DHT22;46702;48.370;10.794;2022-09-09T04:40:06;11.20;99.90
60868;DHT22;46702;48.370;10.794;2022-09-09T04:42:36;11.30;99.90
60868;DHT22;46702;48.370;10.794;2022-09-09T04:45:02;11.40;99.90
60868;DHT22;46702;48.370;10.794;2022-09-09T04:47:27;11.50;99.90
60868;DHT22;46702;48.370;10.794;2022-09-09T04:49:53;11.50;99.90
60868;DHT22;46702;48.370;10.794;2022-09-09T04:52:20;11.60;99.90
60868;DHT22;46702;48.370;10.794;2022-09-09T04:54:46;11.70;99.90
60868;DHT22;46702;48.370;10.794;2022-09-09T04:57:12;11.70;99.90
60868;DHT22;46702;48.370;10.794;2022-09-09T04:59:38;11.70;99.90
60868;DHT22;46702;48.370;10.794;2022-09-09T05:02:05;11.70;99.90
60868;DHT22;46702;48.370;10.794;2022-09-09T05:04:31;11.40;99.90
60868;DHT22;46702;48.370;10.794;2022-09-09T05:06:56;11.40;99.90
60868;DHT22;46702;48.370;10.794;2022-09-09T05:09:22;11.50;99.90
60868;DHT22;46702;48.370;10.794;2022-09-09T05:11:47;11.40;99.90
60868;DHT22;46702;48.370;10.794;2022-09-09T05:14:14;11.20;99.90
60868;DHT22;46702;48.370;10.794;2022-09-09T05:16:40;11.20;99.90
60868;DHT22;46702;48.370;10.794;2022-09-09T05:19:06;11.30;99.90
60868;DHT22;46702;48.370;10.794;2022-09-09T05:21:33;11.40;99.90
60868;DHT22;46702;48.370;10.794;2022-09-09T05:23:59;11.30;99.90
60868;DHT22;46702;48.370;10.794;2022-09-09T05:26:26;11.30;99.90
60868;DHT22;46702;48.370;10.794;2022-09-09T05:28:52;11.40;99.90
60868;DHT22;46702;48.370;10.794;2022-09-09T05:31:19;11.50;99.90
60868;DHT22;46702;48.370;10.794;2022-09-09T05:33:46;11.60;99.90
60868;DHT22;46702;48.370;10.794;2022-09-09T05:36:20;11.60;99.90
60868;DHT22;46702;48.370;10.794;2022-09-09T05:38:47;11.70;99.90
60868;DHT22;46702;48.370;10.794;2022-09-09T05:41:13;11.80;99.90
60868;DHT22;46702;48.370;10.794;2022-09-09T05:43:43;11.80;99.90
60868;DHT22;46702;48.370;10.794;2022-09-09T05:46:23;11.90;99.90
60868;DHT22;46702;48.370;10.794;2022-09-09T05:48:51;11.90;99.90
60868;DHT22;46702;48.370;10.794;2022-09-09T05:51:25;12.00;99.90
60868;DHT22;46702;48.370;10.794;2022-09-09T05:53:52;12.10;99.90
60868;DHT22;46702;48.370;10.794;2022-09-09T05:56:22;12.20;99.90
60868;DHT22;46702;48.370;10.794;2022-09-09T05:58:51;12.20;99.90
60868;DHT22;46702;48.370;10.794;2022-09-09T06:01:21;12.30;99.90
60868;DHT22;46702;48.370;10.794;2022-09-09T06:03:49;12.30;99.90
60868;DHT22;46702;48.370;10.794;2022-09-09T06:06:17;12.40;99.90
60868;DHT22;46702;48.370;10.794;2022-09-09T06:08:44;12.50;99.90
60868;DHT22;46702;48.370;10.794;2022-09-09T06:11:11;12.60;99.90
60868;DHT22;46702;48.370;10.794;2022-09-09T06:13:38;12.60;99.90
60868;DHT22;46702;48.370;10.794;2022-09-09T06:16:05;12.60;99.90
60868;DHT22;46702;48.370;10.794;2022-09-09T06:18:32;12.70;99.90
60868;DHT22;46702;48.370;10.794;2022-09-09T06:21:03;12.80;99.90
60868;DHT22;46702;48.370;10.794;2022-09-09T06:23:30;12.80;99.90
60868;DHT22;46702;48.370;10.794;2022-09-09T06:28:35;12.90;99.90
60868;DHT22;46702;48.370;10.794;2022-09-09T06:31:03;12.90;99.90
60868;DHT22;46702;48.370;10.794;2022-09-09T06:33:42;12.90;99.90
60868;DHT22;46702;48.370;10.794;2022-09-09T06:36:19;13.00;99.90
60868;DHT22;46702;48.370;10.794;2022-09-09T06:38:46;13.00;99.90
60868;DHT22;46702;48.370;10.794;2022-09-09T06:41:14;13.10;99.90
60868;DHT22;46702;48.370;10.794;2022-09-09T06:43:39;13.20;99.90
60868;DHT22;46702;48.370;10.794;2022-09-09T06:46:10;13.20;99.90
60868;DHT22;46702;48.370;10.794;2022-09-09T06:48:38;13.40;99.90
60868;DHT22;46702;48.370;10.794;2022-09-09T06:51:10;13.50;99.90
60868;DHT22;46702;48.370;10.794;2022-09-09T06:53:40;13.60;99.90
60868;DHT22;46702;48.370;10.794;2022-09-09T06:56:29;13.80;99.90
60868;DHT22;46702;48.370;10.794;2022-09-09T06:58:57;13.90;99.90
60868;DHT22;46702;48.370;10.794;2022-09-09T07:01:40;13.90;99.90
60868;DHT22;46702;48.370;10.794;2022-09-09T07:04:07;13.90;99.90
60868;DHT22;46702;48.370;10.794;2022-09-09T07:06:36;13.90;99.90
60868;DHT22;46702;48.370;10.794;2022-09-09T07:09:07;14.00;99.90
60868;DHT22;46702;48.370;10.794;2022-09-09T07:11:39;14.00;99.90
60868;DHT22;46702;48.370;10.794;2022-09-09T07:14:06;14.00;99.90
60868;DHT22;46702;48.370;10.794;2022-09-09T07:16:33;14.10;99.90
60868;DHT22;46702;48.370;10.794;2022-09-09T07:19:03;14.10;99.90
60868;DHT22;46702;48.370;10.794;2022-09-09T07:21:30;14.20;99.90
60868;DHT22;46702;48.370;10.794;2022-09-09T07:23:57;14.20;99.90
60868;DHT22;46702;48.370;10.794;2022-09-09T07:26:29;14.20;99.90
60868;DHT22;46702;48.370;10.794;2022-09-09T07:28:55;14.30;99.90
60868;DHT22;46702;48.370;10.794;2022-09-09T07:31:25;14.20;99.90
60868;DHT22;46702;48.370;10.794;2022-09-09T07:33:51;14.20;99.90
60868;DHT22;46702;48.370;10.794;2022-09-09T07:36:22;14.20;99.90
60868;DHT22;46702;48.370;10.794;2022-09-09T07:38:59;14.30;99.90
60868;DHT22;46702;48.370;10.794;2022-09-09T07:41:31;14.30;99.90
60868;DHT22;46702;48.370;10.794;2022-09-09T07:43:59;14.40;99.90
60868;DHT22;46702;48.370;10.794;2022-09-09T07:46:26;14.30;99.90
60868;DHT22;46702;48.370;10.794;2022-09-09T07:48:54;14.40;99.90
60868;DHT22;46702;48.370;10.794;2022-09-09T07:53:48;14.40;99.90
60868;DHT22;46702;48.370;10.794;2022-09-09T07:56:17;14.50;99.90
60868;DHT22;46702;48.370;10.794;2022-09-09T07:58:45;14.40;99.90
60868;DHT22;46702;48.370;10.794;2022-09-09T08:01:14;14.50;99.90
60868;DHT22;46702;48.370;10.794;2022-09-09T08:03:41;14.50;99.90
60868;DHT22;46702;48.370;10.794;2022-09-09T08:06:08;14.60;99.90
60868;DHT22;46702;48.370;10.794;2022-09-09T08:08:35;14.70;99.90
60868;DHT22;46702;48.370;10.794;2022-09-09T08:11:05;14.80;99.90
60868;DHT22;46702;48.370;10.794;2022-09-09T08:13:34;14.90;99.90
60868;DHT22;46702;48.370;10.794;2022-09-09T08:16:08;15.10;99.90
60868;DHT22;46702;48.370;10.794;2022-09-09T08:18:34;15.20;99.90
60868;DHT22;46702;48.370;10.794;2022-09-09T08:21:21;15.20;99.90
60868;DHT22;46702;48.370;10.794;2022-09-09T08:23:47;15.20;99.90
60868;DHT22;46702;48.370;10.794;2022-09-09T08:26:19;15.30;99.90
60868;DHT22;46702;48.370;10.794;2022-09-09T08:28:47;15.40;99.90
60868;DHT22;46702;48.370;10.794;2022-09-09T08:31:14;15.50;99.90
60868;DHT22;46702;48.370;10.794;2022-09-09T08:33:42;15.80;99.90
60868;DHT22;46702;48.370;10.794;2022-09-09T08:36:14;15.90;99.90
60868;DHT22;46702;48.370;10.794;2022-09-09T08:38:41;16.00;99.90
60868;DHT22;46702;48.370;10.794;2022-09-09T08:52:25;16.20;99.90
60868;DHT22;46702;48.370;10.794;2022-09-09T08:54:53;16.30;99.90
60868;DHT22;46702;48.370;10.794;2022-09-09T08:57:27;16.40;99.90
60868;DHT22;46702;48.370;10.794;2022-09-09T08:59:54;16.50;99.90
60868;DHT22;46702;48.370;10.794;2022-09-09T09:02:42;16.60;99.90
60868;DHT22;46702;48.370;10.794;2022-09-09T09:05:27;16.70;99.90
60868;DHT22;46702;48.370;10.794;2022-09-09T09:08:31;16.80;99.90
60868;DHT22;46702;48.370;10.794;2022-09-09T09:11:01;16.90;99.90
60868;DHT22;46702;48.370;10.794;2022-09-09T09:13:34;17.00;99.90
60868;DHT22;46702;48.370;10.794;2022-09-09T09:16:26;17.10;99.90
60868;DHT22;46702;48.370;10.794;2022-09-09T09:18:54;17.20;99.90
60868;DHT22;46702;48.370;10.794;2022-09-09T09:24:31;17.30;99.90
60868;DHT22;46702;48.370;10.794;2022-09-09T09:26:54;17.30;99.90
60868;DHT22;46702;48.370;10.794;2022-09-09T09:29:20;17.50;99.90
60868;DHT22;46702;48.370;10.794;2022-09-09T09:31:58;17.60;99.90
60868;DHT22;46702;48.370;10.794;2022-09-09T09:34:29;17.80;99.90
60868;DHT22;46702;48.370;10.794;2022-09-09T09:36:59;18.00;99.90
60868;DHT22;46702;48.370;10.794;2022-09-09T09:39:32;18.20;99.90
60868;DHT22;46702;48.370;10.794;2022-09-09T09:42:16;18.10;99.90
60868;DHT22;46702;48.370;10.794;2022-09-09T09:44:46;18.00;99.90
60868;DHT22;46702;48.370;10.794;2022-09-09T09:49:55;18.20;99.90
60868;DHT22;46702;48.370;10.794;2022-09-09T09:52:28;18.20;99.90
60868;DHT22;46702;48.370;10.794;2022-09-09T09:54:55;18.30;99.90
60868;DHT22;46702;48.370;10.794;2022-09-09T09:57:26;18.30;99.90
60868;DHT22;46702;48.370;10.794;2022-09-09T10:02:40;18.30;99.90
60868;DHT22;46702;48.370;10.794;2022-09-09T10:07:40;18.50;99.90
60868;DHT22;46702;48.370;10.794;2022-09-09T10:10:12;18.30;99.90
60868;DHT22;46702;48.370;10.794;2022-09-09T10:13:04;18.40;99.90
60868;DHT22;46702;48.370;10.794;2022-09-09T10:15:58;18.50;99.90
60868;DHT22;46702;48.370;10.794;2022-09-09T10:19:05;18.70;99.90
60868;DHT22;46702;48.370;10.794;2022-09-09T10:30:04;19.40;99.90
60868;DHT22;46702;48.370;10.794;2022-09-09T10:39:15;19.10;99.90
60868;DHT22;46702;48.370;10.794;2022-09-09T10:41:19;19.10;99.90
60868;DHT22;46702;48.370;10.794;2022-09-09T10:50:40;18.90;99.90
60868;DHT22;46702;48.370;10.794;2022-09-09T10:56:12;18.80;99.90
60868;DHT22;46702;48.370;10.794;2022-09-09T11:03:56;18.80;99.90
60868;DHT22;46702;48.370;10.794;2022-09-09T11:06:31;19.00;99.90
60868;DHT22;46702;48.370;10.794;2022-09-09T11:09:00;19.10;99.90
60868;DHT22;46702;48.370;10.794;2022-09-09T11:11:39;19.00;99.90
60868;DHT22;46702;48.370;10.794;2022-09-09T11:16:53;19.10;99.90
60868;DHT22;46702;48.370;10.794;2022-09-09T11:19:39;19.10;99.90
60868;DHT22;46702;48.370;10.794;2022-09-09T11:22:12;19.00;99.90
60868;DHT22;46702;48.370;10.794;2022-09-09T11:25:23;19.20;99.90
60868;DHT22;46702;48.370;10.794;2022-09-09T11:42:07;19.40;99.90
60868;DHT22;46702;48.370;10.794;2022-09-09T11:44:33;19.50;99.90
60868;DHT22;46702;48.370;10.794;2022-09-09T11:46:59;19.60;99.90
60868;DHT22;46702;48.370;10.794;2022-09-09T11:49:29;19.60;99.90
60868;DHT22;46702;48.370;10.794;2022-09-09T11:51:56;19.80;99.90
60868;DHT22;46702;48.370;10.794;2022-09-09T11:54:30;19.60;99.90
60868;DHT22;46702;48.370;10.794;2022-09-09T11:56:56;19.60;99.90
60868;DHT22;46702;48.370;10.794;2022-09-09T12:02:02;19.70;99.90
60868;DHT22;46702;48.370;10.794;2022-09-09T12:04:40;19.70;99.90
60868;DHT22;46702;48.370;10.794;2022-09-09T12:12:31;19.80;99.90
60868;DHT22;46702;48.370;10.794;2022-09-09T12:17:46;20.00;99.90
60868;DHT22;46702;48.370;10.794;2022-09-09T12:20:22;19.80;99.90
60868;DHT22;46702;48.370;10.794;2022-09-09T12:31:20;19.80;99.90
60868;DHT22;46702;48.370;10.794;2022-09-09T12:33:47;19.90;99.90
60868;DHT22;46702;48.370;10.794;2022-09-09T12:36:32;20.00;99.90
60868;DHT22;46702;48.370;10.794;2022-09-09T12:42:01;19.80;99.90
60868;DHT22;46702;48.370;10.794;2022-09-09T12:44:29;19.90;99.90
60868;DHT22;46702;48.370;10.794;2022-09-09T12:46:58;20.00;99.90
60868;DHT22;46702;48.370;10.794;2022-09-09T12:49:35;20.10;99.90
60868;DHT22;46702;48.370;10.794;2022-09-09T12:52:28;20.20;99.90
60868;DHT22;46702;48.370;10.794;2022-09-09T12:54:58;20.10;99.90
60868;DHT22;46702;48.370;10.794;2022-09-09T12:57:25;20.00;99.90
60868;DHT22;46702;48.370;10.794;2022-09-09T12:59:51;20.10;99.90
60868;DHT22;46702;48.370;10.794;2022-09-09T13:02:21;20.20;99.90
60868;DHT22;46702;48.370;10.794;2022-09-09T13:04:47;20.20;99.90
60868;DHT22;46702;48.370;10.794;2022-09-09T13:07:16;20.10;99.00
60868;DHT22;46702;48.370;10.794;2022-09-09T13:09:43;20.20;97.20
60868;DHT22;46702;48.370;10.794;2022-09-09T13:12:14;20.10;94.70
60868;DHT22;46702;48.370;10.794;2022-09-09T13:14:43;20.10;96.10
60868;DHT22;46702;48.370;10.794;2022-09-09T13:17:21;20.10;98.90
60868;DHT22;46702;48.370;10.794;2022-09-09T13:19:48;20.30;99.00
60868;DHT22;46702;48.370;10.794;2022-09-09T13:22:29;20.60;99.00
60868;DHT22;46702;48.370;10.794;2022-09-09T13:25:26;20.90;97.90
60868;DHT22;46702;48.370;10.794;2022-09-09T13:27:55;21.00;94.90
60868;DHT22;46702;48.370;10.794;2022-09-09T13:30:25;20.80;95.80
60868;DHT22;46702;48.370;10.794;2022-09-09T13:35:55;20.90;98.30
60868;DHT22;46702;48.370;10.794;2022-09-09T13:38:22;20.70;98.40
60868;DHT22;46702;48.370;10.794;2022-09-09T13:40:58;20.30;98.70
60868;DHT22;46702;48.370;10.794;2022-09-09T13:43:27;20.10;96.70
60868;DHT22;46702;48.370;10.794;2022-09-09T13:45:55;19.80;97.70
60868;DHT22;46702;48.370;10.794;2022-09-09T13:48:22;19.70;98.30
60868;DHT22;46702;48.370;10.794;2022-09-09T13:54:14;19.30;99.90
60868;DHT22;46702;48.370;10.794;2022-09-09T13:56:41;19.10;99.90
60868;DHT22;46702;48.370;10.794;2022-09-09T13:59:18;18.80;99.90
60868;DHT22;46702;48.370;10.794;2022-09-09T14:01:45;18.70;99.90
60868;DHT22;46702;48.370;10.794;2022-09-09T14:04:11;18.30;99.90
60868;DHT22;46702;48.370;10.794;2022-09-09T14:06:38;17.80;99.90
60868;DHT22;46702;48.370;10.794;2022-09-09T14:09:11;17.40;99.90
60868;DHT22;46702;48.370;10.794;2022-09-09T14:11:37;17.50;99.90
60868;DHT22;46702;48.370;10.794;2022-09-09T14:14:03;17.60;99.90
60868;DHT22;46702;48.370;10.794;2022-09-09T14:16:29;17.60;99.90
60868;DHT22;46702;48.370;10.794;2022-09-09T14:18:54;17.50;99.90
60868;DHT22;46702;48.370;10.794;2022-09-09T14:21:25;17.20;99.90
60868;DHT22;46702;48.370;10.794;2022-09-09T14:23:51;17.30;99.90
60868;DHT22;46702;48.370;10.794;2022-09-09T14:26:18;17.30;99.90
60868;DHT22;46702;48.370;10.794;2022-09-09T14:28:44;17.20;99.90
60868;DHT22;46702;48.370;10.794;2022-09-09T14:31:11;17.40;99.90
60868;DHT22;46702;48.370;10.794;2022-09-09T14:33:38;17.60;99.90
60868;DHT22;46702;48.370;10.794;2022-09-09T14:36:05;17.90;99.90
60868;DHT22;46702;48.370;10.794;2022-09-09T14:38:36;18.00;99.90
60868;DHT22;46702;48.370;10.794;2022-09-09T14:41:15;18.10;99.90
60868;DHT22;46702;48.370;10.794;2022-09-09T14:43:45;18.10;99.90
60868;DHT22;46702;48.370;10.794;2022-09-09T14:46:16;18.10;99.90
60868;DHT22;46702;48.370;10.794;2022-09-09T14:48:42;18.00;99.90
60868;DHT22;46702;48.370;10.794;2022-09-09T14:51:19;17.80;99.90
60868;DHT22;46702;48.370;10.794;2022-09-09T14:53:45;17.60;99.90
60868;DHT22;46702;48.370;10.794;2022-09-09T14:56:14;17.60;99.90
60868;DHT22;46702;48.370;10.794;2022-09-09T14:58:40;17.60;99.90
60868;DHT22;46702;48.370;10.794;2022-09-09T15:01:14;17.80;99.90
60868;DHT22;46702;48.370;10.794;2022-09-09T15:03:41;17.90;99.90
60868;DHT22;46702;48.370;10.794;2022-09-09T15:06:09;18.10;99.90
60868;DHT22;46702;48.370;10.794;2022-09-09T15:08:36;18.20;99.90
60868;DHT22;46702;48.370;10.794;2022-09-09T15:11:05;18.00;99.90
60868;DHT22;46702;48.370;10.794;2022-09-09T15:13:32;18.00;99.90
60868;DHT22;46702;48.370;10.794;2022-09-09T15:16:04;17.90;99.90
60868;DHT22;46702;48.370;10.794;2022-09-09T15:18:31;17.90;99.90
60868;DHT22;46702;48.370;10.794;2022-09-09T15:20:59;17.90;99.90
60868;DHT22;46702;48.370;10.794;2022-09-09T15:23:25;18.00;99.90
60868;DHT22;46702;48.370;10.794;2022-09-09T15:25:53;18.20;99.90
60868;DHT22;46702;48.370;10.794;2022-09-09T15:28:19;18.20;99.90
60868;DHT22;46702;48.370;10.794;2022-09-09T15:30:48;18.20;99.90
60868;DHT22;46702;48.370;10.794;2022-09-09T15:33:14;18.20;99.90
60868;DHT22;46702;48.370;10.794;2022-09-09T15:35:39;18.30;99.90
60868;DHT22;46702;48.370;10.794;2022-09-09T15:38:05;18.30;99.90
60868;DHT22;46702;48.370;10.794;2022-09-09T15:40:31;18.30;99.90
60868;DHT22;46702;48.370;10.794;2022-09-09T15:43:00;18.30;99.90
60868;DHT22;46702;48.370;10.794;2022-09-09T15:45:25;18.50;99.90
60868;DHT22;46702;48.370;10.794;2022-09-09T15:47:53;18.40;99.90
60868;DHT22;46702;48.370;10.794;2022-09-09T15:50:19;18.60;99.90
60868;DHT22;46702;48.370;10.794;2022-09-09T15:52:44;18.80;99.90
60868;DHT22;46702;48.370;10.794;2022-09-09T15:55:11;18.90;99.90
60868;DHT22;46702;48.370;10.794;2022-09-09T15:57:37;18.90;99.90
60868;DHT22;46702;48.370;10.794;2022-09-09T16:00:04;19.10;99.90
60868;DHT22;46702;48.370;10.794;2022-09-09T16:02:31;19.20;99.90
60868;DHT22;46702;48.370;10.794;2022-09-09T16:04:57;19.40;99.90
60868;DHT22;46702;48.370;10.794;2022-09-09T16:07:22;19.50;99.90
60868;DHT22;46702;48.370;10.794;2022-09-09T16:09:48;19.50;99.90
60868;DHT22;46702;48.370;10.794;2022-09-09T16:12:17;19.50;99.90
60868;DHT22;46702;48.370;10.794;2022-09-09T16:14:42;19.60;99.90
60868;DHT22;46702;48.370;10.794;2022-09-09T16:17:08;19.60;99.90
60868;DHT22;46702;48.370;10.794;2022-09-09T16:19:34;19.50;99.90
60868;DHT22;46702;48.370;10.794;2022-09-09T16:22:00;19.40;99.90
60868;DHT22;46702;48.370;10.794;2022-09-09T16:24:26;19.30;99.90
60868;DHT22;46702;48.370;10.794;2022-09-09T16:26:53;19.00;99.90
60868;DHT22;46702;48.370;10.794;2022-09-09T16:29:20;18.90;99.90
60868;DHT22;46702;48.370;10.794;2022-09-09T16:31:47;19.00;99.90
60868;DHT22;46702;48.370;10.794;2022-09-09T16:34:14;19.00;99.90
60868;DHT22;46702;48.370;10.794;2022-09-09T16:36:41;19.10;99.90
60868;DHT22;46702;48.370;10.794;2022-09-09T16:39:12;19.00;99.90
60868;DHT22;46702;48.370;10.794;2022-09-09T16:41:39;19.00;99.90
60868;DHT22;46702;48.370;10.794;2022-09-09T16:44:07;19.10;99.90
60868;DHT22;46702;48.370;10.794;2022-09-09T16:46:36;19.10;99.90
60868;DHT22;46702;48.370;10.794;2022-09-09T16:49:06;19.00;99.90
60868;DHT22;46702;48.370;10.794;2022-09-09T16:51:40;19.00;99.90
60868;DHT22;46702;48.370;10.794;2022-09-09T16:54:08;19.00;99.90
60868;DHT22;46702;48.370;10.794;2022-09-09T16:56:36;18.90;99.90
60868;DHT22;46702;48.370;10.794;2022-09-09T16:59:06;18.90;99.90
60868;DHT22;46702;48.370;10.794;2022-09-09T17:01:34;18.90;99.90
60868;DHT22;46702;48.370;10.794;2022-09-09T17:04:04;18.80;99.90
60868;DHT22;46702;48.370;10.794;2022-09-09T17:06:30;18.70;99.90
60868;DHT22;46702;48.370;10.794;2022-09-09T17:08:58;18.60;99.90
60868;DHT22;46702;48.370;10.794;2022-09-09T17:11:25;18.40;99.90
60868;DHT22;46702;48.370;10.794;2022-09-09T17:13:52;18.20;99.90
60868;DHT22;46702;48.370;10.794;2022-09-09T17:16:20;18.20;99.90
60868;DHT22;46702;48.370;10.794;2022-09-09T17:18:50;18.00;99.90
60868;DHT22;46702;48.370;10.794;2022-09-09T17:21:20;17.90;99.90
60868;DHT22;46702;48.370;10.794;2022-09-09T17:23:46;17.90;99.90
60868;DHT22;46702;48.370;10.794;2022-09-09T17:26:15;17.80;99.90
60868;DHT22;46702;48.370;10.794;2022-09-09T17:28:42;17.70;99.90
60868;DHT22;46702;48.370;10.794;2022-09-09T17:31:10;17.70;99.90
60868;DHT22;46702;48.370;10.794;2022-09-09T17:33:37;17.70;99.90
60868;DHT22;46702;48.370;10.794;2022-09-09T17:36:11;17.70;99.90
60868;DHT22;46702;48.370;10.794;2022-09-09T17:38:38;17.60;99.90
60868;DHT22;46702;48.370;10.794;2022-09-09T17:41:13;17.60;99.90
60868;DHT22;46702;48.370;10.794;2022-09-09T17:43:40;17.50;99.90
60868;DHT22;46702;48.370;10.794;2022-09-09T17:48:39;17.40;99.90
60868;DHT22;46702;48.370;10.794;2022-09-09T17:51:12;17.40;99.90
60868;DHT22;46702;48.370;10.794;2022-09-09T17:53:43;17.50;99.90
60868;DHT22;46702;48.370;10.794;2022-09-09T17:56:11;17.30;99.90
60868;DHT22;46702;48.370;10.794;2022-09-09T17:58:37;16.80;99.90